Time;durP1;ratioP1;P1;durP2;ratioP2;P2;SDS_P1;SDS_P2;PMS_P1;PMS_P2;Temp;Humidity;BMP_temperature;BMP_pressure;BME280_temperature;BME280_humidity;BME280_pressure;Samples;Min_cycle;Max_cycle;Signal;HPM_P1;HPM_P2
2022/06/05 00:01:00;;;;;;;6.40;5.80;;;17.10;1.00;;;;;;5052862;28;20276;-63
2022/06/05 00:03:51;;;;;;;8.77;5.80;;;17.10;1.00;;;;;;5062167;28;20201;-62
2022/06/05 00:06:31;;;;;;;5.57;5.07;;;17.10;1.00;;;;;;5041884;28;20272;-62
2022/06/05 00:09:01;;;;;;;9.63;5.78;;;17.00;1.00;;;;;;5055416;28;20204;-63
2022/06/05 00:11:48;;;;;;;5.83;5.17;;;17.00;1.00;;;;;;5059068;28;20203;-63
2022/06/05 00:14:16;;;;;;;5.80;5.30;;;17.00;1.00;;;;;;5058698;28;20203;-65
2022/06/05 00:16:43;;;;;;;6.00;5.45;;;17.00;1.00;;;;;;5056581;28;20268;-63
2022/06/05 00:19:10;;;;;;;5.65;5.18;;;16.90;1.00;;;;;;5053968;28;20198;-65
2022/06/05 00:21:37;;;;;;;5.93;5.32;;;16.90;1.00;;;;;;5055676;28;20243;-63
2022/06/05 00:24:04;;;;;;;6.32;5.72;;;16.80;1.00;;;;;;5057120;28;20634;-63
2022/06/05 00:26:54;;;;;;;8.60;5.45;;;16.80;1.00;;;;;;5060487;28;20194;-64
2022/06/05 00:29:48;;;;;;;6.10;5.60;;;16.80;1.00;;;;;;5039471;28;20921;-64
2022/06/05 00:32:38;;;;;;;8.63;5.78;;;16.80;1.00;;;;;;5053470;28;20284;-63
2022/06/05 00:35:12;;;;;;;8.50;5.73;;;16.80;1.00;;;;;;5057717;28;20188;-63
2022/06/05 00:38:03;;;;;;;6.45;5.82;;;16.80;1.00;;;;;;5056182;28;20261;-66
2022/06/05 00:40:56;;;;;;;10.18;5.28;;;16.70;1.00;;;;;;5054207;28;20216;-63
2022/06/05 00:43:24;;;;;;;4.80;4.00;;;17.30;1.00;;;;;;5028671;28;20195;-62
2022/06/05 00:45:53;;;;;;;5.53;5.03;;;18.00;1.00;;;;;;5046874;28;20207;-63
2022/06/05 00:48:20;;;;;;;7.57;6.88;;;18.10;1.00;;;;;;5041236;28;20708;-63
2022/06/05 00:50:48;;;;;;;14.02;10.43;;;18.10;1.00;;;;;;5047099;28;20245;-64
2022/06/05 00:53:15;;;;;;;27.80;24.83;;;18.00;1.00;;;;;;5058192;28;20283;-63
2022/06/05 00:55:47;;;;;;;6.70;5.93;;;18.20;1.00;;;;;;5059051;28;20253;-64
2022/06/05 00:58:15;;;;;;;14.23;12.35;;;18.10;1.00;;;;;;5056692;28;20194;-64
2022/06/05 01:00:46;;;;;;;11.00;9.93;;;18.10;1.00;;;;;;5057047;28;20223;-62
2022/06/05 01:03:14;;;;;;;9.60;7.80;;;18.10;1.00;;;;;;5048844;28;20762;-64
2022/06/05 01:05:42;;;;;;;26.13;23.48;;;18.20;1.00;;;;;;5042941;28;20209;-63
2022/06/05 01:08:10;;;;;;;11.93;10.63;;;18.10;1.00;;;;;;5055095;28;20200;-62
2022/06/05 01:10:52;;;;;;;26.85;22.92;;;18.20;1.00;;;;;;5048592;28;20253;-62
2022/06/05 01:13:31;;;;;;;14.38;11.70;;;18.20;1.00;;;;;;5037332;28;20195;-64
2022/06/05 01:16:21;;;;;;;15.23;12.10;;;18.10;1.00;;;;;;5056013;28;20257;-64
2022/06/05 01:18:48;;;;;;;13.98;12.18;;;18.00;1.00;;;;;;5026626;28;20226;-63
2022/06/05 01:21:44;;;;;;;17.35;14.52;;;18.10;1.00;;;;;;5041452;28;20242;-63
2022/06/05 01:24:40;;;;;;;17.58;15.60;;;18.10;1.00;;;;;;5057052;28;20663;-64
2022/06/05 01:27:12;;;;;;;12.60;10.43;;;18.00;1.00;;;;;;5045835;28;20571;-63
2022/06/05 01:29:52;;;;;;;19.73;17.63;;;17.70;1.00;;;;;;5055690;28;20237;-62
2022/06/05 01:32:28;;;;;;;15.68;13.35;;;17.60;1.00;;;;;;5041152;28;20195;-63
2022/06/05 01:35:01;;;;;;;17.30;15.45;;;17.70;1.00;;;;;;5060927;28;20267;-63
2022/06/05 01:37:38;;;;;;;14.60;13.00;;;17.70;1.00;;;;;;5057065;28;20218;-63
2022/06/05 01:40:17;;;;;;;10.20;8.73;;;18.10;1.00;;;;;;5057589;28;20219;-63
2022/06/05 01:42:59;;;;;;;8.27;7.35;;;18.10;1.00;;;;;;5041486;28;20211;-64
2022/06/05 01:45:40;;;;;;;6.55;5.90;;;18.20;1.00;;;;;;5039313;28;20200;-62
2022/06/05 01:48:13;;;;;;;6.20;5.60;;;18.20;1.00;;;;;;5037774;28;20187;-63
2022/06/05 01:50:48;;;;;;;6.40;5.80;;;18.10;1.00;;;;;;5056888;28;20200;-62
2022/06/05 01:53:24;;;;;;;7.53;6.32;;;17.90;1.00;;;;;;5043332;28;20207;-63
2022/06/05 01:56:00;;;;;;;8.10;6.05;;;17.80;1.00;;;;;;5060910;28;20666;-63
2022/06/05 01:58:36;;;;;;;6.88;6.03;;;17.80;1.00;;;;;;5061262;28;20188;-64
2022/06/05 02:01:08;;;;;;;6.75;5.72;;;17.80;1.00;;;;;;5050928;28;20310;-64
2022/06/05 02:03:40;;;;;;;7.30;5.60;;;17.90;1.00;;;;;;5042268;28;20207;-63
2022/06/05 02:06:13;;;;;;;6.80;5.07;;;17.90;1.00;;;;;;5050567;28;20195;-62
2022/06/05 02:08:42;;;;;;;5.70;5.20;;;17.90;1.00;;;;;;5067376;28;20234;-62
2022/06/05 02:11:30;;;;;;;9.18;5.40;;;17.80;1.00;;;;;;5066248;28;20213;-63
2022/06/05 02:14:02;;;;;;;5.90;5.30;;;17.70;1.00;;;;;;5047032;28;20199;-64
2022/06/05 02:16:32;;;;;;;5.68;5.15;;;17.90;1.00;;;;;;5049454;28;20219;-64
2022/06/05 02:19:01;;;;;;;5.57;5.07;;;18.00;1.00;;;;;;5059747;28;20203;-64
2022/06/05 02:21:28;;;;;;;6.82;5.25;;;18.00;1.00;;;;;;5043718;28;20628;-64
2022/06/05 02:23:56;;;;;;;7.30;5.55;;;17.90;1.00;;;;;;5063011;28;20810;-64
2022/06/05 02:26:25;;;;;;;6.97;5.13;;;17.90;1.00;;;;;;5058996;28;20658;-65
2022/06/05 02:28:53;;;;;;;6.70;4.93;;;17.80;1.00;;;;;;5062579;28;20607;-64
2022/06/05 02:32:00;;;;;;;5.80;5.30;;;17.70;1.00;;;;;;5062931;28;20598;-65
2022/06/05 02:34:40;;;;;;;6.68;5.45;;;17.70;1.00;;;;;;5000797;28;20273;-64
2022/06/05 02:37:22;;;;;;;7.10;5.60;;;17.00;1.00;;;;;;5044438;28;20202;-63
2022/06/05 02:40:15;;;;;;;8.20;4.93;;;17.00;1.00;;;;;;5063029;28;20256;-64
2022/06/05 02:43:14;;;;;;;6.70;5.10;;;17.20;1.00;;;;;;5062821;28;20223;-64
2022/06/05 02:45:52;;;;;;;8.35;4.45;;;17.40;1.00;;;;;;5059819;28;20197;-64
2022/06/05 02:48:41;;;;;;;5.65;5.05;;;17.60;1.00;;;;;;5059354;28;20195;-63
2022/06/05 02:51:18;;;;;;;6.10;5.50;;;17.60;1.00;;;;;;5064305;28;20213;-63
2022/06/05 02:53:57;;;;;;;6.40;5.20;;;17.60;1.00;;;;;;5063528;28;20196;-62
2022/06/05 02:56:26;;;;;;;7.05;5.35;;;17.50;1.00;;;;;;5044221;28;20195;-63
2022/06/05 02:58:57;;;;;;;5.85;5.25;;;17.20;1.00;;;;;;5054194;28;20202;-62
2022/06/05 03:04:09;;;;;;;7.75;5.75;;;17.00;1.00;;;;;;5061777;28;20259;-63
2022/06/05 03:06:39;;;;;;;6.82;6.03;;;17.00;1.00;;;;;;5046393;28;20672;-63
2022/06/05 03:09:07;;;;;;;6.63;6.03;;;16.80;1.00;;;;;;5044155;28;20195;-66
2022/06/05 03:11:40;;;;;;;10.55;5.35;;;16.70;1.00;;;;;;5062319;28;20196;-64
2022/06/05 03:14:07;;;;;;;6.10;5.50;;;16.80;1.00;;;;;;5065990;28;20589;-65
2022/06/05 03:16:35;;;;;;;8.73;5.80;;;16.70;1.00;;;;;;5028406;28;20206;-65
2022/06/05 03:19:02;;;;;;;7.20;5.85;;;16.70;1.00;;;;;;5027171;28;20207;-65
2022/06/05 03:21:34;;;;;;;6.90;6.20;;;16.60;1.00;;;;;;5063542;28;20239;-63
2022/06/05 03:24:01;;;;;;;6.07;5.47;;;16.50;1.00;;;;;;5044229;28;20552;-65
2022/06/05 03:26:29;;;;;;;6.07;5.57;;;16.60;1.00;;;;;;5059732;28;20195;-65
2022/06/05 03:28:56;;;;;;;6.25;5.65;;;16.60;1.00;;;;;;5044617;28;20199;-64
2022/06/05 03:31:25;;;;;;;6.13;5.50;;;16.60;1.00;;;;;;5053158;28;20701;-65
2022/06/05 03:33:52;;;;;;;7.68;5.97;;;16.70;1.00;;;;;;5059325;28;20199;-65
2022/06/05 03:36:19;;;;;;;6.38;5.30;;;16.70;1.00;;;;;;5056251;28;20223;-64
2022/06/05 03:38:47;;;;;;;6.60;5.60;;;16.70;1.00;;;;;;5059641;28;20222;-65
2022/06/05 03:41:15;;;;;;;8.00;5.27;;;16.80;1.00;;;;;;5062097;28;20203;-62
2022/06/05 03:43:43;;;;;;;6.07;5.03;;;16.70;1.00;;;;;;5063139;28;20329;-63
2022/06/05 03:46:14;;;;;;;6.10;5.50;;;17.00;1.00;;;;;;5061917;28;20206;-65
2022/06/05 03:48:41;;;;;;;6.18;5.57;;;16.80;1.00;;;;;;5062039;28;20225;-64
2022/06/05 03:51:14;;;;;;;5.63;5.13;;;17.00;1.00;;;;;;5062361;28;20192;-63
2022/06/05 03:53:42;;;;;;;5.40;4.90;;;17.30;1.00;;;;;;5058378;28;20195;-65
2022/06/05 03:56:14;;;;;;;6.97;4.93;;;17.50;1.00;;;;;;5047506;28;20207;-65
2022/06/05 03:58:42;;;;;;;5.22;4.72;;;17.60;1.00;;;;;;5060144;28;20200;-64
2022/06/05 04:01:11;;;;;;;5.65;5.15;;;17.90;1.00;;;;;;5062788;28;20231;-63
2022/06/05 04:03:39;;;;;;;5.68;4.88;;;18.30;1.00;;;;;;5044578;28;20298;-63
2022/06/05 04:06:17;;;;;;;4.70;4.30;;;18.30;1.00;;;;;;5054584;28;20203;-63
2022/06/05 04:08:44;;;;;;;6.82;4.47;;;18.50;1.00;;;;;;5061834;28;20195;-63
2022/06/05 04:11:13;;;;;;;5.13;4.63;;;18.50;99.90;;;;;;5062213;28;20273;-63
2022/06/05 04:13:40;;;;;;;4.82;4.13;;;18.10;1.00;;;;;;5059511;28;20194;-62
2022/06/05 04:16:14;;;;;;;9.02;4.90;;;18.20;1.00;;;;;;5064282;28;20191;-63
2022/06/05 04:18:41;;;;;;;4.82;4.13;;;18.60;99.90;;;;;;5061569;28;20195;-63
2022/06/05 04:21:11;;;;;;;4.68;4.28;;;18.90;99.90;;;;;;5062869;28;20234;-63
2022/06/05 04:23:38;;;;;;;9.60;4.70;;;18.90;99.90;;;;;;5057911;28;20200;-62
2022/06/05 04:26:11;;;;;;;6.35;4.93;;;18.60;99.90;;;;;;5045516;28;20545;-64
2022/06/05 04:28:39;;;;;;;4.93;4.53;;;18.50;99.90;;;;;;5061908;28;20197;-62
2022/06/05 04:31:21;;;;;;;5.25;4.57;;;18.50;99.90;;;;;;5063171;28;20196;-62
2022/06/05 04:33:50;;;;;;;4.80;4.35;;;18.60;99.90;;;;;;5062746;28;20196;-62
2022/06/05 04:36:18;;;;;;;6.68;4.88;;;18.70;99.90;;;;;;5062346;28;20191;-64
2022/06/05 04:38:45;;;;;;;4.70;4.30;;;18.60;99.90;;;;;;5061532;28;20219;-63
2022/06/05 04:41:12;;;;;;;7.05;4.72;;;18.60;99.90;;;;;;5045435;28;20188;-64
2022/06/05 04:43:40;;;;;;;8.82;4.35;;;18.60;99.90;;;;;;5041369;28;20195;-64
2022/06/05 04:46:08;;;;;;;6.03;4.47;;;18.80;99.90;;;;;;5058251;28;20230;-64
2022/06/05 04:48:35;;;;;;;7.07;4.47;;;18.80;99.90;;;;;;5059269;28;20207;-62
2022/06/05 04:51:07;;;;;;;4.78;4.32;;;18.80;99.90;;;;;;5045214;28;20199;-64
2022/06/05 04:53:37;;;;;;;7.10;4.65;;;18.70;99.90;;;;;;5044445;28;20225;-65
2022/06/05 04:56:07;;;;;;;7.57;4.38;;;18.60;99.90;;;;;;5052023;28;20209;-65
2022/06/05 04:58:34;;;;;;;4.85;4.35;;;18.70;99.90;;;;;;5050690;28;20233;-65
2022/06/05 05:01:02;;;;;;;6.88;4.65;;;18.70;99.90;;;;;;5043181;28;20203;-62
2022/06/05 05:03:28;;;;;;;5.75;4.63;;;18.70;99.90;;;;;;5030376;28;20268;-63
2022/06/05 05:05:56;;;;;;;5.22;4.43;;;18.60;99.90;;;;;;5057806;28;20209;-63
2022/06/05 05:08:22;;;;;;;4.65;4.25;;;18.80;99.90;;;;;;5059506;28;20254;-63
2022/06/05 05:10:49;;;;;;;4.85;4.20;;;18.80;99.90;;;;;;5059538;28;20268;-63
2022/06/05 05:13:16;;;;;;;4.15;3.85;;;19.10;99.90;;;;;;5041674;28;23223;-63
2022/06/05 05:15:49;;;;;;;6.80;4.70;;;19.20;99.90;;;;;;5064448;28;20225;-63
2022/06/05 05:18:16;;;;;;;4.60;4.20;;;19.10;99.90;;;;;;5060758;28;21269;-64
2022/06/05 05:20:43;;;;;;;5.20;4.22;;;19.10;99.90;;;;;;5040608;28;20738;-63
2022/06/05 05:23:10;;;;;;;5.85;4.47;;;19.10;99.90;;;;;;5039591;28;20211;-63
2022/06/05 05:25:37;;;;;;;5.18;4.45;;;19.00;99.90;;;;;;5046033;28;20203;-63
2022/06/05 05:28:06;;;;;;;6.38;4.30;;;18.90;99.90;;;;;;5036429;28;20207;-63
2022/06/05 05:30:34;;;;;;;4.72;4.30;;;19.10;99.90;;;;;;5040313;28;20195;-64
2022/06/05 05:33:01;;;;;;;5.72;4.57;;;19.20;99.90;;;;;;5042202;28;20207;-64
2022/06/05 05:35:28;;;;;;;6.25;4.15;;;19.20;99.90;;;;;;5041167;28;20215;-63
2022/06/05 05:37:56;;;;;;;5.60;3.95;;;19.00;99.90;;;;;;5039887;28;20223;-63
2022/06/05 05:43:08;;;;;;;5.25;4.07;;;18.70;99.90;;;;;;5041547;28;20195;-64
2022/06/05 05:45:35;;;;;;;5.25;4.38;;;18.80;99.90;;;;;;5035139;28;20195;-64
2022/06/05 05:48:03;;;;;;;5.57;4.78;;;18.90;99.90;;;;;;5045461;28;20192;-62
2022/06/05 05:50:30;;;;;;;5.78;4.50;;;18.90;99.90;;;;;;5036806;28;20195;-63
2022/06/05 05:52:56;;;;;;;4.97;4.38;;;19.00;99.90;;;;;;5047827;28;20696;-63
2022/06/05 05:55:24;;;;;;;4.60;4.00;;;19.30;99.90;;;;;;5047286;28;20257;-64
2022/06/05 05:57:51;;;;;;;4.82;4.43;;;19.40;99.90;;;;;;5047011;28;20215;-64
2022/06/05 06:00:19;;;;;;;4.68;3.80;;;19.50;99.90;;;;;;5043420;28;20220;-63
2022/06/05 06:02:46;;;;;;;4.30;3.90;;;19.60;99.90;;;;;;5045193;28;20738;-64
2022/06/05 06:05:17;;;;;;;6.18;4.25;;;19.60;99.90;;;;;;5045905;28;20254;-65
2022/06/05 06:07:45;;;;;;;5.80;3.90;;;19.90;99.90;;;;;;5043570;28;20192;-64
2022/06/05 06:10:13;;;;;;;7.22;4.50;;;19.80;99.90;;;;;;5042358;28;20218;-65
2022/06/05 06:12:41;;;;;;;4.60;4.25;;;19.70;99.90;;;;;;5044324;28;20808;-64
2022/06/05 06:15:09;;;;;;;7.95;4.88;;;19.70;99.90;;;;;;5046146;28;20259;-64
2022/06/05 06:17:36;;;;;;;6.38;4.15;;;19.80;99.90;;;;;;5044684;28;20253;-64
2022/06/05 06:20:04;;;;;;;4.65;4.13;;;20.10;99.90;;;;;;5042892;28;20227;-64
2022/06/05 06:22:32;;;;;;;4.38;3.97;;;20.20;99.90;;;;;;5041694;28;20245;-64
2022/06/05 06:25:01;;;;;;;4.90;4.15;;;20.10;99.90;;;;;;5045983;28;20204;-65
2022/06/05 06:27:28;;;;;;;5.07;4.60;;;20.40;99.90;;;;;;5044221;28;20669;-63
2022/06/05 06:29:55;;;;;;;4.43;4.03;;;20.70;99.90;;;;;;5049236;28;20200;-63
2022/06/05 06:32:22;;;;;;;5.05;4.20;;;21.00;99.90;;;;;;5040426;28;20188;-63
2022/06/05 06:34:49;;;;;;;8.50;4.47;;;21.00;99.90;;;;;;5044046;28;20196;-62
2022/06/05 06:37:16;;;;;;;7.00;3.90;;;21.10;99.90;;;;;;5046065;28;20278;-61
2022/06/05 06:39:43;;;;;;;5.88;4.30;;;21.50;99.90;;;;;;5038940;28;20222;-63
2022/06/05 06:42:10;;;;;;;4.68;4.13;;;21.80;99.90;;;;;;5040069;28;20249;-64
2022/06/05 06:44:37;;;;;;;5.60;4.50;;;21.90;99.90;;;;;;5038308;28;20295;-64
2022/06/05 06:47:05;;;;;;;6.68;4.22;;;22.40;99.90;;;;;;5045190;28;20199;-65
2022/06/05 06:49:33;;;;;;;4.95;4.20;;;22.80;99.90;;;;;;5038883;28;20203;-65
2022/06/05 06:52:01;;;;;;;5.57;4.10;;;23.10;99.90;;;;;;5033111;28;20658;-64
2022/06/05 06:54:28;;;;;;;5.93;4.15;;;23.30;99.90;;;;;;5038547;28;20196;-64
2022/06/05 06:56:55;;;;;;;5.00;4.05;;;23.10;99.90;;;;;;5039410;28;20192;-64
2022/06/05 06:59:23;;;;;;;4.72;4.32;;;22.80;99.90;;;;;;5054084;28;20199;-64
2022/06/05 07:01:51;;;;;;;4.75;4.25;;;22.60;99.90;;;;;;5055687;28;20226;-64
2022/06/05 07:04:18;;;;;;;5.20;4.63;;;22.30;99.90;;;;;;5040735;28;20244;-63
2022/06/05 07:06:45;;;;;;;6.38;4.63;;;22.10;99.90;;;;;;5042775;28;20212;-64
2022/06/05 07:09:14;;;;;;;6.43;4.30;;;21.70;99.90;;;;;;5042978;28;20203;-64
2022/06/05 07:11:41;;;;;;;4.65;4.35;;;21.70;99.90;;;;;;5045979;28;20664;-63
2022/06/05 07:14:09;;;;;;;6.43;5.10;;;21.30;99.90;;;;;;5045047;28;20208;-63
2022/06/05 07:16:37;;;;;;;7.50;4.82;;;21.10;99.90;;;;;;5044557;28;20204;-65
2022/06/05 07:19:05;;;;;;;6.78;4.35;;;21.10;99.90;;;;;;5013357;28;20207;-63
2022/06/05 07:21:32;;;;;;;5.35;4.85;;;21.20;99.90;;;;;;5043179;28;20239;-64
2022/06/05 07:23:59;;;;;;;5.22;4.82;;;20.90;99.90;;;;;;5043740;28;20763;-65
2022/06/05 07:26:32;;;;;;;5.03;4.53;;;20.90;99.90;;;;;;5039133;28;20212;-65
2022/06/05 07:28:59;;;;;;;6.47;5.00;;;20.90;99.90;;;;;;5045264;28;20219;-65
2022/06/05 07:31:29;;;;;;;8.80;5.50;;;20.80;99.90;;;;;;5046170;28;20196;-64
2022/06/05 07:33:58;;;;;;;5.75;5.20;;;20.80;99.90;;;;;;5053404;28;20272;-64
2022/06/05 07:36:26;;;;;;;7.28;5.80;;;20.80;99.90;;;;;;5047166;28;20253;-65
2022/06/05 07:38:55;;;;;;;6.32;5.60;;;21.00;99.90;;;;;;5052020;28;20220;-63
2022/06/05 07:41:28;;;;;;;10.50;5.70;;;21.00;99.90;;;;;;5045543;28;20207;-65
2022/06/05 07:43:56;;;;;;;6.10;5.50;;;21.20;99.90;;;;;;5044360;28;20655;-64
2022/06/05 07:46:23;;;;;;;6.18;5.57;;;21.60;99.90;;;;;;5044246;28;20191;-65
2022/06/05 07:48:51;;;;;;;7.80;5.65;;;21.60;99.90;;;;;;5041123;28;20189;-65
2022/06/05 07:54:33;;;;;;;5.95;4.93;;;22.50;99.90;;;;;;5043079;28;20279;-64
2022/06/05 07:57:03;;;;;;;6.22;5.13;;;22.80;99.90;;;;;;5046839;28;20197;-65
2022/06/05 07:59:33;;;;;;;7.63;5.38;;;23.70;99.90;;;;;;5045369;28;20200;-64
2022/06/05 08:02:03;;;;;;;6.13;5.40;;;23.40;99.90;;;;;;5044876;28;20204;-65
2022/06/05 08:04:32;;;;;;;6.25;5.70;;;23.80;99.90;;;;;;5042440;28;20195;-64
2022/06/05 08:07:00;;;;;;;5.57;5.03;;;24.10;99.90;;;;;;5041935;28;20544;-64
2022/06/05 08:09:28;;;;;;;5.72;5.05;;;24.60;99.90;;;;;;5044924;28;20203;-63
2022/06/05 08:11:56;;;;;;;7.50;5.68;;;24.00;99.90;;;;;;5046703;28;20210;-63
2022/06/05 08:14:23;;;;;;;8.18;5.60;;;23.40;99.90;;;;;;5046021;28;20241;-64
2022/06/05 08:16:51;;;;;;;8.18;5.78;;;23.20;99.90;;;;;;5048428;28;20235;-64
2022/06/05 08:19:22;;;;;;;8.65;5.45;;;23.30;99.90;;;;;;5040377;28;20686;-64
2022/06/05 08:21:51;;;;;;;9.38;5.38;;;23.40;99.90;;;;;;5049420;28;20282;-65
2022/06/05 08:24:19;;;;;;;5.68;4.90;;;23.70;99.90;;;;;;5045423;28;20687;-64
2022/06/05 08:26:46;;;;;;;5.93;4.53;;;23.80;99.90;;;;;;5036211;28;20295;-63
2022/06/05 08:29:13;;;;;;;6.35;5.03;;;24.10;99.90;;;;;;5035328;28;20195;-64
2022/06/05 08:31:41;;;;;;;5.93;5.32;;;24.20;99.90;;;;;;5044374;28;20200;-64
2022/06/05 08:34:08;;;;;;;5.68;5.10;;;24.20;99.90;;;;;;5050541;28;20256;-64
2022/06/05 08:36:35;;;;;;;5.40;4.90;;;24.20;99.90;;;;;;5042537;28;20212;-63
2022/06/05 08:42:04;;;;;;;5.60;5.00;;;23.80;99.90;;;;;;5056432;28;20196;-64
2022/06/05 08:45:03;;;;;;;6.78;5.07;;;24.30;99.90;;;;;;5050146;28;20224;-64
2022/06/05 08:47:36;;;;;;;5.30;4.15;;;26.90;99.90;;;;;;5039222;28;20215;-66
2022/06/05 08:50:09;;;;;;;5.43;4.45;;;29.40;99.90;;;;;;5043850;28;20277;-64
2022/06/05 08:52:49;;;;;;;5.53;4.70;;;30.40;99.90;;;;;;5040644;28;20216;-64
2022/06/05 08:55:38;;;;;;;5.93;4.30;;;29.90;99.90;;;;;;5039279;28;20276;-65
2022/06/05 08:58:17;;;;;;;6.55;4.45;;;29.40;99.90;;;;;;5047282;28;20195;-64
2022/06/05 09:01:01;;;;;;;7.07;4.78;;;28.60;99.90;;;;;;5040557;28;20195;-64
2022/06/05 09:03:44;;;;;;;6.53;4.88;;;27.30;99.90;;;;;;5029273;28;20212;-64
2022/06/05 09:06:15;;;;;;;8.13;4.90;;;26.70;99.90;;;;;;5043481;28;20192;-64
2022/06/05 09:08:43;;;;;;;7.00;5.18;;;25.80;99.90;;;;;;5029315;28;20262;-63
2022/06/05 09:11:33;;;;;;;6.80;5.15;;;25.50;99.90;;;;;;5036591;28;20557;-64
2022/06/05 09:14:15;;;;;;;5.90;5.05;;;25.60;99.90;;;;;;5046959;28;20188;-64
2022/06/05 09:16:47;;;;;;;9.75;5.68;;;25.20;99.90;;;;;;5036380;28;20188;-65
2022/06/05 09:19:18;;;;;;;6.10;5.43;;;24.80;99.90;;;;;;5042206;28;20250;-63
2022/06/05 09:22:11;;;;;;;6.68;5.10;;;24.40;99.90;;;;;;5059324;28;20239;-64
2022/06/05 09:24:50;;;;;;;6.13;5.63;;;24.20;99.90;;;;;;5037176;28;20227;-64
2022/06/05 09:28:00;;;;;;;6.32;5.68;;;23.80;99.90;;;;;;5059367;28;20272;-64
2022/06/05 09:30:44;;;;;;;6.10;5.60;;;24.10;99.90;;;;;;5032919;28;20210;-64
2022/06/05 09:33:25;;;;;;;6.10;5.43;;;24.50;99.90;;;;;;5062091;28;20217;-63
2022/06/05 09:35:59;;;;;;;5.47;4.93;;;24.00;99.90;;;;;;5064462;28;20244;-64
2022/06/05 09:38:40;;;;;;;5.35;4.85;;;24.60;99.90;;;;;;5049333;28;20222;-64
2022/06/05 09:41:11;;;;;;;5.85;5.20;;;25.10;99.90;;;;;;5060608;28;20187;-63
2022/06/05 09:43:57;;;;;;;6.70;5.07;;;24.30;99.90;;;;;;5062103;28;20759;-63
2022/06/05 09:46:30;;;;;;;5.53;5.03;;;24.70;99.90;;;;;;5064087;28;20199;-63
2022/06/05 09:49:43;;;;;;;6.50;5.50;;;24.60;99.90;;;;;;5045843;28;20594;-64
2022/06/05 09:52:20;;;;;;;8.68;5.30;;;24.60;99.90;;;;;;5059614;28;20192;-64
2022/06/05 09:54:55;;;;;;;8.52;5.10;;;24.20;99.90;;;;;;5054890;28;21255;-64
2022/06/05 10:00:38;;;;;;;5.63;5.13;;;23.90;99.90;;;;;;5063600;28;20275;-63
2022/06/05 10:03:09;;;;;;;5.97;5.15;;;23.90;99.90;;;;;;5046335;28;20211;-64
2022/06/05 10:05:40;;;;;;;5.82;5.30;;;24.00;99.90;;;;;;5064403;28;20191;-64
2022/06/05 10:08:24;;;;;;;5.75;5.15;;;23.70;99.90;;;;;;5043851;28;20188;-64
2022/06/05 10:11:01;;;;;;;7.80;5.00;;;23.90;99.90;;;;;;5063913;28;20199;-65
2022/06/05 10:13:51;;;;;;;6.18;5.57;;;24.10;99.90;;;;;;5055989;28;20180;-65
2022/06/05 10:16:23;;;;;;;8.20;5.00;;;23.90;99.90;;;;;;5062696;28;20788;-64
2022/06/05 10:19:04;;;;;;;5.00;4.53;;;23.60;99.90;;;;;;5044411;28;20230;-65
2022/06/05 10:21:36;;;;;;;6.57;5.53;;;23.50;99.90;;;;;;5056350;28;20238;-65
2022/06/05 10:24:03;;;;;;;6.60;5.65;;;23.30;99.90;;;;;;5043318;28;20811;-64
2022/06/05 10:26:34;;;;;;;7.55;5.38;;;23.00;99.90;;;;;;5062184;28;20581;-64
2022/06/05 10:29:17;;;;;;;7.95;5.53;;;23.10;99.90;;;;;;5064620;28;20207;-64
2022/06/05 10:32:06;;;;;;;5.95;5.15;;;23.10;99.90;;;;;;5064515;28;20226;-64
2022/06/05 10:35:19;;;;;;;7.75;5.75;;;23.00;99.90;;;;;;5043640;28;20745;-64
2022/06/05 10:37:59;;;;;;;9.48;5.85;;;22.80;99.90;;;;;;4985074;28;20385;-63
2022/06/05 10:40:40;;;;;;;6.75;5.50;;;22.70;99.90;;;;;;4953841;28;20216;-63
2022/06/05 10:43:22;;;;;;;10.25;6.07;;;22.70;1.00;;;;;;5038415;28;20304;-64
2022/06/05 10:45:51;;;;;;;6.85;6.10;;;22.60;1.00;;;;;;5064969;28;20196;-63
2022/06/05 10:48:26;;;;;;;6.88;6.28;;;22.50;1.00;;;;;;5067077;28;20207;-63
2022/06/05 10:51:03;;;;;;;7.35;6.75;;;22.30;1.00;;;;;;5048848;28;20187;-63
2022/06/05 10:53:56;;;;;;;7.32;6.63;;;22.00;1.00;;;;;;5067432;28;20209;-65
2022/06/05 10:56:28;;;;;;;7.78;6.97;;;21.60;56.80;;;;;;5065664;28;20248;-64
2022/06/05 10:59:17;;;;;;;7.90;7.20;;;21.40;99.90;;;;;;5047696;28;20239;-63
2022/06/05 11:02:18;;;;;;;8.13;6.47;;;21.20;99.90;;;;;;5040058;28;20265;-63
2022/06/05 11:04:59;;;;;;;7.75;6.57;;;21.10;99.90;;;;;;5048646;28;20218;-63
2022/06/05 11:07:47;;;;;;;8.23;5.47;;;21.20;99.90;;;;;;5063765;28;20241;-63
2022/06/05 11:13:50;;;;;;;6.03;5.53;;;21.10;99.90;;;;;;5063516;28;20195;-64
2022/06/05 11:16:40;;;;;;;5.68;5.20;;;21.10;99.90;;;;;;5065777;28;20209;-64
2022/06/05 11:19:27;;;;;;;6.07;5.53;;;21.00;99.90;;;;;;5046494;28;20199;-64
2022/06/05 11:21:58;;;;;;;5.85;5.35;;;21.00;99.90;;;;;;5024990;28;20204;-64
2022/06/05 11:24:34;;;;;;;6.47;5.88;;;21.00;99.90;;;;;;5021530;28;20752;-64
2022/06/05 11:27:10;;;;;;;7.35;6.75;;;20.70;99.90;;;;;;5025318;28;20200;-64
2022/06/05 11:29:58;;;;;;;7.97;7.18;;;20.80;1.00;;;;;;5021197;28;20200;-64
2022/06/05 11:32:45;;;;;;;9.35;7.93;;;20.90;1.00;;;;;;5022377;28;20193;-64
2022/06/05 11:35:18;;;;;;;10.30;9.32;;;20.80;1.00;;;;;;5024816;28;20196;-65
2022/06/05 11:38:02;;;;;;;9.23;8.43;;;20.80;99.90;;;;;;5019052;28;20278;-63
2022/06/05 11:41:01;;;;;;;9.48;8.45;;;20.80;1.00;;;;;;5025282;28;20668;-64
2022/06/05 11:43:37;;;;;;;9.52;7.93;;;20.80;1.00;;;;;;5023836;28;20212;-64
2022/06/05 11:46:32;;;;;;;8.50;7.57;;;20.80;1.00;;;;;;5023177;28;20239;-63
2022/06/05 11:49:19;;;;;;;8.63;7.10;;;20.70;1.00;;;;;;5024408;28;20670;-64
2022/06/05 11:51:46;;;;;;;8.85;7.97;;;20.70;1.00;;;;;;5024046;28;20257;-65
2022/06/05 11:54:22;;;;;;;8.27;7.57;;;20.80;1.00;;;;;;5021150;28;20228;-64
2022/06/05 11:57:13;;;;;;;8.15;7.45;;;20.80;1.00;;;;;;5014362;28;20259;-64
2022/06/05 11:59:45;;;;;;;8.35;7.63;;;20.80;1.00;;;;;;5021558;28;20246;-64
2022/06/05 12:02:44;;;;;;;7.75;6.93;;;20.80;1.00;;;;;;5022133;28;20205;-63
2022/06/05 12:05:23;;;;;;;9.27;8.43;;;20.70;99.90;;;;;;5027848;28;20219;-64
2022/06/05 12:07:58;;;;;;;9.02;8.23;;;20.80;1.00;;;;;;5013703;28;20280;-63
2022/06/05 12:10:28;;;;;;;8.63;7.82;;;20.70;99.90;;;;;;5021750;28;20789;-65
2022/06/05 12:13:09;;;;;;;8.57;7.88;;;20.60;1.00;;;;;;5021308;28;20835;-64
2022/06/05 12:16:01;;;;;;;9.07;8.27;;;20.70;99.90;;;;;;5029315;28;20203;-65
2022/06/05 12:18:53;;;;;;;8.85;7.95;;;20.70;99.90;;;;;;5027526;28;20208;-65
2022/06/05 12:21:28;;;;;;;10.13;8.45;;;20.60;99.90;;;;;;5044969;28;20916;-64
2022/06/05 12:24:05;;;;;;;9.52;8.73;;;20.70;1.00;;;;;;5031249;28;20709;-65
2022/06/05 12:26:45;;;;;;;8.73;7.82;;;20.80;99.90;;;;;;5049053;28;20199;-64
2022/06/05 12:29:40;;;;;;;8.60;7.82;;;20.70;99.90;;;;;;5030644;28;20200;-65
2022/06/05 12:32:35;;;;;;;9.77;8.88;;;20.90;99.90;;;;;;5058685;28;20262;-64
2022/06/05 12:35:14;;;;;;;8.02;7.10;;;21.30;99.90;;;;;;5022604;28;20241;-64
2022/06/05 12:37:47;;;;;;;7.72;7.13;;;21.20;52.60;;;;;;5040686;28;20215;-63
2022/06/05 12:40:21;;;;;;;8.20;7.50;;;21.30;21.80;;;;;;5042771;28;20203;-64
2022/06/05 12:43:01;;;;;;;8.18;7.55;;;21.60;1.00;;;;;;5041832;28;20744;-64
2022/06/05 12:45:31;;;;;;;8.10;7.35;;;21.70;55.80;;;;;;5043970;28;20245;-64
2022/06/05 12:48:09;;;;;;;7.95;7.15;;;21.60;1.00;;;;;;5042838;28;20191;-64
2022/06/05 12:50:51;;;;;;;10.63;7.20;;;21.70;1.00;;;;;;5040060;28;20196;-64
2022/06/05 12:53:41;;;;;;;7.97;7.38;;;21.90;1.00;;;;;;5043510;28;20193;-63
2022/06/05 12:56:34;;;;;;;6.93;6.32;;;22.00;1.00;;;;;;5048026;28;20195;-64
2022/06/05 12:59:23;;;;;;;7.80;7.10;;;22.00;1.00;;;;;;5036243;28;20295;-64
2022/06/05 13:02:22;;;;;;;7.97;6.72;;;22.00;1.00;;;;;;5044035;28;20195;-65
2022/06/05 13:05:26;;;;;;;9.57;7.20;;;21.80;1.00;;;;;;5043180;28;20235;-65
2022/06/05 13:08:05;;;;;;;8.90;7.22;;;21.70;1.00;;;;;;5025628;28;20278;-64
2022/06/05 13:10:35;;;;;;;7.43;6.82;;;21.70;1.00;;;;;;5043635;28;20262;-64
2022/06/05 13:13:21;;;;;;;8.07;7.32;;;21.50;1.00;;;;;;5043713;28;20562;-64
2022/06/05 13:16:03;;;;;;;8.15;7.35;;;21.60;1.00;;;;;;5043672;28;20191;-65
2022/06/05 13:18:40;;;;;;;7.90;7.05;;;21.60;1.00;;;;;;5043034;28;20191;-64
2022/06/05 13:21:33;;;;;;;7.95;7.15;;;21.60;1.00;;;;;;5055443;28;20309;-64
2022/06/05 13:24:26;;;;;;;7.80;6.97;;;21.70;1.00;;;;;;5044613;28;20199;-64
2022/06/05 13:27:30;;;;;;;7.97;7.25;;;21.70;1.00;;;;;;5026816;28;20238;-65
2022/06/05 13:30:08;;;;;;;8.63;7.78;;;21.80;1.00;;;;;;5047169;28;20191;-63
2022/06/05 13:32:45;;;;;;;7.68;7.07;;;22.00;1.00;;;;;;5062210;28;20904;-65
2022/06/05 13:35:35;;;;;;;8.95;8.10;;;22.00;1.00;;;;;;5065065;28;20726;-64
2022/06/05 13:38:18;;;;;;;7.85;7.18;;;21.70;1.00;;;;;;5062634;28;20255;-64
2022/06/05 13:41:00;;;;;;;8.57;7.78;;;21.60;1.00;;;;;;5043695;28;20255;-64
2022/06/05 13:43:33;;;;;;;9.18;8.27;;;21.70;1.00;;;;;;5060170;28;20203;-65
2022/06/05 13:46:22;;;;;;;9.75;8.00;;;21.80;1.00;;;;;;5049576;28;20199;-64
2022/06/05 13:49:33;;;;;;;8.68;7.97;;;21.90;1.00;;;;;;5063464;28;20191;-64